< < Back
Terminal Aerodrome Forecast


Current Version              Previous Versions:   1  2  3  4  5  6  7  8  9  

Terminal Aerodrome Forecast

768
FTUS42 KJAX 182300
TAFJAX
TAF
KJAX 182331Z 1900/1924 00000KT P6SM FEW100 BKN200
     FM191500 VRB04KT P6SM FEW050 BKN200=



Latest METAR

910
SAUS80 KWBC 200200 RRA
MTRJAX
METAR KJAX 200156Z 00000KT 10SM SCT100 SCT250 11/09 A3011 RMK AO2 SLP195
T01060094


USA.gov is the U.S. government's official web portal to all federal, state and local government web resources and services.